sensor_id;sensor_type;location;lat;lon;timestamp;temperature;humidity
22771;DHT22;11552;50.786;4.332;2022-08-03T00:01:36;22.70;99.90
22771;DHT22;11552;50.786;4.332;2022-08-03T00:04:03;22.70;99.90
22771;DHT22;11552;50.786;4.332;2022-08-03T00:06:29;22.80;99.90
22771;DHT22;11552;50.786;4.332;2022-08-03T00:08:55;22.70;99.90
22771;DHT22;11552;50.786;4.332;2022-08-03T00:11:21;22.60;99.90
22771;DHT22;11552;50.786;4.332;2022-08-03T00:13:47;22.20;99.90
22771;DHT22;11552;50.786;4.332;2022-08-03T00:16:13;22.00;99.90
22771;DHT22;11552;50.786;4.332;2022-08-03T00:18:38;22.00;99.90
22771;DHT22;11552;50.786;4.332;2022-08-03T00:21:05;22.00;99.90
22771;DHT22;11552;50.786;4.332;2022-08-03T00:23:31;22.00;99.90
22771;DHT22;11552;50.786;4.332;2022-08-03T00:25:57;22.20;99.90
22771;DHT22;11552;50.786;4.332;2022-08-03T00:28:22;22.20;99.90
22771;DHT22;11552;50.786;4.332;2022-08-03T00:30:48;22.30;99.90
22771;DHT22;11552;50.786;4.332;2022-08-03T00:33:14;22.30;99.90
22771;DHT22;11552;50.786;4.332;2022-08-03T00:35:40;22.20;99.90
22771;DHT22;11552;50.786;4.332;2022-08-03T00:38:05;22.00;99.90
22771;DHT22;11552;50.786;4.332;2022-08-03T00:40:32;21.90;99.90
22771;DHT22;11552;50.786;4.332;2022-08-03T00:42:59;21.80;99.90
22771;DHT22;11552;50.786;4.332;2022-08-03T00:45:30;21.80;99.90
22771;DHT22;11552;50.786;4.332;2022-08-03T00:47:57;22.00;99.90
22771;DHT22;11552;50.786;4.332;2022-08-03T00:50:24;22.10;99.90
22771;DHT22;11552;50.786;4.332;2022-08-03T00:52:57;22.00;99.90
22771;DHT22;11552;50.786;4.332;2022-08-03T00:55:23;21.90;99.90
22771;DHT22;11552;50.786;4.332;2022-08-03T00:57:49;21.80;99.90
22771;DHT22;11552;50.786;4.332;2022-08-03T01:00:18;21.90;99.90
22771;DHT22;11552;50.786;4.332;2022-08-03T01:02:44;21.90;99.90
22771;DHT22;11552;50.786;4.332;2022-08-03T01:05:10;21.90;99.90
22771;DHT22;11552;50.786;4.332;2022-08-03T01:07:41;21.90;99.90
22771;DHT22;11552;50.786;4.332;2022-08-03T01:12:43;21.60;99.90
22771;DHT22;11552;50.786;4.332;2022-08-03T01:20:15;21.60;99.90
22771;DHT22;11552;50.786;4.332;2022-08-03T01:25:45;21.50;99.90
22771;DHT22;11552;50.786;4.332;2022-08-03T01:31:06;21.40;99.90
22771;DHT22;11552;50.786;4.332;2022-08-03T01:33:38;21.30;99.90
22771;DHT22;11552;50.786;4.332;2022-08-03T01:36:08;21.30;99.90
22771;DHT22;11552;50.786;4.332;2022-08-03T01:38:43;21.40;99.90
22771;DHT22;11552;50.786;4.332;2022-08-03T01:41:14;21.40;99.90
22771;DHT22;11552;50.786;4.332;2022-08-03T01:43:43;21.30;99.90
22771;DHT22;11552;50.786;4.332;2022-08-03T01:46:13;21.20;99.90
22771;DHT22;11552;50.786;4.332;2022-08-03T01:48:41;21.20;99.90
22771;DHT22;11552;50.786;4.332;2022-08-03T01:51:08;20.90;99.90
22771;DHT22;11552;50.786;4.332;2022-08-03T01:53:35;20.90;99.90
22771;DHT22;11552;50.786;4.332;2022-08-03T01:56:02;21.00;99.90
22771;DHT22;11552;50.786;4.332;2022-08-03T01:58:28;21.10;99.90
22771;DHT22;11552;50.786;4.332;2022-08-03T02:00:56;20.90;99.90
22771;DHT22;11552;50.786;4.332;2022-08-03T02:03:26;20.80;99.90
22771;DHT22;11552;50.786;4.332;2022-08-03T02:05:54;20.80;99.90
22771;DHT22;11552;50.786;4.332;2022-08-03T02:08:23;20.80;99.90
22771;DHT22;11552;50.786;4.332;2022-08-03T02:10:51;20.80;99.90
22771;DHT22;11552;50.786;4.332;2022-08-03T02:13:19;20.60;99.90
22771;DHT22;11552;50.786;4.332;2022-08-03T02:15:46;20.50;99.90
22771;DHT22;11552;50.786;4.332;2022-08-03T02:18:13;20.40;99.90
22771;DHT22;11552;50.786;4.332;2022-08-03T02:20:41;20.40;99.90
22771;DHT22;11552;50.786;4.332;2022-08-03T02:23:07;20.30;99.90
22771;DHT22;11552;50.786;4.332;2022-08-03T02:25:42;20.40;99.90
22771;DHT22;11552;50.786;4.332;2022-08-03T02:28:18;20.50;99.90
22771;DHT22;11552;50.786;4.332;2022-08-03T02:30:48;20.50;99.90
22771;DHT22;11552;50.786;4.332;2022-08-03T02:33:23;20.50;99.90
22771;DHT22;11552;50.786;4.332;2022-08-03T02:35:51;20.40;99.90
22771;DHT22;11552;50.786;4.332;2022-08-03T02:38:20;20.20;99.90
22771;DHT22;11552;50.786;4.332;2022-08-03T02:40:49;20.40;99.90
22771;DHT22;11552;50.786;4.332;2022-08-03T02:43:17;20.50;99.90
22771;DHT22;11552;50.786;4.332;2022-08-03T02:45:48;20.50;99.90
22771;DHT22;11552;50.786;4.332;2022-08-03T02:48:20;20.40;99.90
22771;DHT22;11552;50.786;4.332;2022-08-03T02:53:16;20.40;99.90
22771;DHT22;11552;50.786;4.332;2022-08-03T02:55:43;20.40;99.90
22771;DHT22;11552;50.786;4.332;2022-08-03T02:58:09;20.30;99.90
22771;DHT22;11552;50.786;4.332;2022-08-03T03:00:37;20.30;99.90
22771;DHT22;11552;50.786;4.332;2022-08-03T03:03:04;20.30;99.90
22771;DHT22;11552;50.786;4.332;2022-08-03T03:05:31;20.30;99.90
22771;DHT22;11552;50.786;4.332;2022-08-03T03:07:57;20.40;99.90
22771;DHT22;11552;50.786;4.332;2022-08-03T03:10:24;20.30;99.90
22771;DHT22;11552;50.786;4.332;2022-08-03T03:12:53;20.20;99.90
22771;DHT22;11552;50.786;4.332;2022-08-03T03:15:20;20.20;99.90
22771;DHT22;11552;50.786;4.332;2022-08-03T03:17:48;20.20;99.90
22771;DHT22;11552;50.786;4.332;2022-08-03T03:20:15;20.20;99.90
22771;DHT22;11552;50.786;4.332;2022-08-03T03:22:43;20.10;99.90
22771;DHT22;11552;50.786;4.332;2022-08-03T03:25:09;20.00;99.90
22771;DHT22;11552;50.786;4.332;2022-08-03T03:27:35;20.10;99.90
22771;DHT22;11552;50.786;4.332;2022-08-03T03:30:02;20.10;99.90
22771;DHT22;11552;50.786;4.332;2022-08-03T03:32:29;20.10;99.90
22771;DHT22;11552;50.786;4.332;2022-08-03T03:34:55;20.00;99.90
22771;DHT22;11552;50.786;4.332;2022-08-03T03:37:23;20.10;99.90
22771;DHT22;11552;50.786;4.332;2022-08-03T03:39:49;20.00;99.90
22771;DHT22;11552;50.786;4.332;2022-08-03T03:42:15;19.90;99.90
22771;DHT22;11552;50.786;4.332;2022-08-03T03:44:40;19.80;99.90
22771;DHT22;11552;50.786;4.332;2022-08-03T03:47:06;19.70;99.90
22771;DHT22;11552;50.786;4.332;2022-08-03T03:49:32;19.50;99.90
22771;DHT22;11552;50.786;4.332;2022-08-03T03:51:58;19.10;99.90
22771;DHT22;11552;50.786;4.332;2022-08-03T03:54:24;19.00;99.90
22771;DHT22;11552;50.786;4.332;2022-08-03T03:56:49;19.00;99.90
22771;DHT22;11552;50.786;4.332;2022-08-03T03:59:15;19.10;99.90
22771;DHT22;11552;50.786;4.332;2022-08-03T04:01:41;19.30;99.90
22771;DHT22;11552;50.786;4.332;2022-08-03T04:04:06;19.50;99.90
22771;DHT22;11552;50.786;4.332;2022-08-03T04:06:55;19.40;99.90
22771;DHT22;11552;50.786;4.332;2022-08-03T04:09:40;19.50;99.90
22771;DHT22;11552;50.786;4.332;2022-08-03T04:12:27;19.40;99.90
22771;DHT22;11552;50.786;4.332;2022-08-03T04:14:55;19.40;99.90
22771;DHT22;11552;50.786;4.332;2022-08-03T04:17:24;19.30;99.90
22771;DHT22;11552;50.786;4.332;2022-08-03T04:19:52;19.30;99.90
22771;DHT22;11552;50.786;4.332;2022-08-03T04:22:26;19.30;99.90
22771;DHT22;11552;50.786;4.332;2022-08-03T04:25:06;19.30;99.90
22771;DHT22;11552;50.786;4.332;2022-08-03T04:27:39;19.30;99.90
22771;DHT22;11552;50.786;4.332;2022-08-03T04:30:06;19.20;99.90
22771;DHT22;11552;50.786;4.332;2022-08-03T04:32:34;19.10;99.90
22771;DHT22;11552;50.786;4.332;2022-08-03T04:35:02;19.20;99.90
22771;DHT22;11552;50.786;4.332;2022-08-03T04:37:37;19.10;99.90
22771;DHT22;11552;50.786;4.332;2022-08-03T04:40:06;19.20;99.90
22771;DHT22;11552;50.786;4.332;2022-08-03T04:42:33;19.30;99.90
22771;DHT22;11552;50.786;4.332;2022-08-03T04:45:02;19.20;99.90
22771;DHT22;11552;50.786;4.332;2022-08-03T04:47:31;19.20;99.90
22771;DHT22;11552;50.786;4.332;2022-08-03T04:50:00;19.20;99.90
22771;DHT22;11552;50.786;4.332;2022-08-03T04:52:25;19.30;99.90
22771;DHT22;11552;50.786;4.332;2022-08-03T04:54:51;19.40;99.90
22771;DHT22;11552;50.786;4.332;2022-08-03T04:57:17;19.30;99.90
22771;DHT22;11552;50.786;4.332;2022-08-03T04:59:43;19.40;99.90
22771;DHT22;11552;50.786;4.332;2022-08-03T05:02:09;19.40;99.90
22771;DHT22;11552;50.786;4.332;2022-08-03T05:04:34;19.30;99.90
22771;DHT22;11552;50.786;4.332;2022-08-03T05:07:02;19.20;99.90
22771;DHT22;11552;50.786;4.332;2022-08-03T05:09:28;19.30;99.90
22771;DHT22;11552;50.786;4.332;2022-08-03T05:11:53;19.40;99.90
22771;DHT22;11552;50.786;4.332;2022-08-03T05:14:19;19.50;99.90
22771;DHT22;11552;50.786;4.332;2022-08-03T05:16:45;19.70;99.90
22771;DHT22;11552;50.786;4.332;2022-08-03T05:19:11;19.80;99.90
22771;DHT22;11552;50.786;4.332;2022-08-03T05:21:37;19.80;99.90
22771;DHT22;11552;50.786;4.332;2022-08-03T05:24:03;19.90;99.90
22771;DHT22;11552;50.786;4.332;2022-08-03T05:26:28;20.00;99.90
22771;DHT22;11552;50.786;4.332;2022-08-03T05:28:54;20.10;99.90
22771;DHT22;11552;50.786;4.332;2022-08-03T05:31:20;20.10;99.90
22771;DHT22;11552;50.786;4.332;2022-08-03T05:33:45;20.30;99.90
22771;DHT22;11552;50.786;4.332;2022-08-03T05:36:13;20.20;99.90
22771;DHT22;11552;50.786;4.332;2022-08-03T05:38:38;20.30;99.90
22771;DHT22;11552;50.786;4.332;2022-08-03T05:41:04;20.50;99.90
22771;DHT22;11552;50.786;4.332;2022-08-03T05:43:30;20.60;99.90
22771;DHT22;11552;50.786;4.332;2022-08-03T05:45:56;20.70;99.90
22771;DHT22;11552;50.786;4.332;2022-08-03T05:48:23;20.80;99.90
22771;DHT22;11552;50.786;4.332;2022-08-03T05:50:49;20.90;99.90
22771;DHT22;11552;50.786;4.332;2022-08-03T05:53:14;20.90;99.90
22771;DHT22;11552;50.786;4.332;2022-08-03T05:55:40;21.00;99.90
22771;DHT22;11552;50.786;4.332;2022-08-03T05:58:06;21.00;99.90
22771;DHT22;11552;50.786;4.332;2022-08-03T06:00:31;20.90;99.90
22771;DHT22;11552;50.786;4.332;2022-08-03T06:02:57;20.90;99.90
22771;DHT22;11552;50.786;4.332;2022-08-03T06:05:23;21.00;99.90
22771;DHT22;11552;50.786;4.332;2022-08-03T06:07:51;21.20;99.90
22771;DHT22;11552;50.786;4.332;2022-08-03T06:10:17;21.20;99.90
22771;DHT22;11552;50.786;4.332;2022-08-03T06:12:43;21.20;99.90
22771;DHT22;11552;50.786;4.332;2022-08-03T06:15:12;21.20;99.90
22771;DHT22;11552;50.786;4.332;2022-08-03T06:17:47;21.20;99.90
22771;DHT22;11552;50.786;4.332;2022-08-03T06:20:16;21.30;99.90
22771;DHT22;11552;50.786;4.332;2022-08-03T06:22:41;21.50;99.90
22771;DHT22;11552;50.786;4.332;2022-08-03T06:25:07;21.70;99.90
22771;DHT22;11552;50.786;4.332;2022-08-03T06:27:33;21.80;99.90
22771;DHT22;11552;50.786;4.332;2022-08-03T06:29:59;21.90;99.90
22771;DHT22;11552;50.786;4.332;2022-08-03T06:32:25;21.90;99.90
22771;DHT22;11552;50.786;4.332;2022-08-03T06:34:50;21.90;99.90
22771;DHT22;11552;50.786;4.332;2022-08-03T06:37:16;21.90;99.90
22771;DHT22;11552;50.786;4.332;2022-08-03T06:39:42;22.00;99.90
22771;DHT22;11552;50.786;4.332;2022-08-03T06:42:08;22.10;99.90
22771;DHT22;11552;50.786;4.332;2022-08-03T06:44:34;22.00;99.90
22771;DHT22;11552;50.786;4.332;2022-08-03T06:47:01;21.90;99.90
22771;DHT22;11552;50.786;4.332;2022-08-03T06:49:27;21.80;99.90
22771;DHT22;11552;50.786;4.332;2022-08-03T06:51:53;22.00;99.90
22771;DHT22;11552;50.786;4.332;2022-08-03T06:54:19;22.00;99.90
22771;DHT22;11552;50.786;4.332;2022-08-03T06:56:47;22.00;99.90
22771;DHT22;11552;50.786;4.332;2022-08-03T06:59:12;22.20;99.90
22771;DHT22;11552;50.786;4.332;2022-08-03T07:01:38;22.30;99.90
22771;DHT22;11552;50.786;4.332;2022-08-03T07:04:03;22.30;99.90
22771;DHT22;11552;50.786;4.332;2022-08-03T07:06:30;22.40;99.90
22771;DHT22;11552;50.786;4.332;2022-08-03T07:08:56;22.50;99.90
22771;DHT22;11552;50.786;4.332;2022-08-03T07:11:22;22.60;99.90
22771;DHT22;11552;50.786;4.332;2022-08-03T07:13:47;22.80;99.90
22771;DHT22;11552;50.786;4.332;2022-08-03T07:16:13;22.70;99.90
22771;DHT22;11552;50.786;4.332;2022-08-03T07:18:39;22.90;99.90
22771;DHT22;11552;50.786;4.332;2022-08-03T07:21:05;22.90;99.90
22771;DHT22;11552;50.786;4.332;2022-08-03T07:23:32;23.00;99.90
22771;DHT22;11552;50.786;4.332;2022-08-03T07:25:57;23.30;99.90
22771;DHT22;11552;50.786;4.332;2022-08-03T07:28:23;23.30;99.90
22771;DHT22;11552;50.786;4.332;2022-08-03T07:30:49;23.40;99.90
22771;DHT22;11552;50.786;4.332;2022-08-03T07:33:14;23.50;99.90
22771;DHT22;11552;50.786;4.332;2022-08-03T07:35:40;23.60;99.90
22771;DHT22;11552;50.786;4.332;2022-08-03T07:38:06;23.80;99.90
22771;DHT22;11552;50.786;4.332;2022-08-03T07:40:31;23.90;99.90
22771;DHT22;11552;50.786;4.332;2022-08-03T07:42:57;23.90;99.90
22771;DHT22;11552;50.786;4.332;2022-08-03T07:45:23;23.90;99.90
22771;DHT22;11552;50.786;4.332;2022-08-03T07:47:50;24.00;99.90
22771;DHT22;11552;50.786;4.332;2022-08-03T07:50:16;24.30;99.90
22771;DHT22;11552;50.786;4.332;2022-08-03T07:52:42;25.80;99.90
22771;DHT22;11552;50.786;4.332;2022-08-03T07:55:14;28.10;99.90
22771;DHT22;11552;50.786;4.332;2022-08-03T07:57:40;30.10;99.90
22771;DHT22;11552;50.786;4.332;2022-08-03T08:00:12;31.40;97.80
22771;DHT22;11552;50.786;4.332;2022-08-03T08:02:39;32.80;93.90
22771;DHT22;11552;50.786;4.332;2022-08-03T08:05:05;33.60;91.20
22771;DHT22;11552;50.786;4.332;2022-08-03T08:07:31;34.70;86.20
22771;DHT22;11552;50.786;4.332;2022-08-03T08:09:56;35.80;81.80
22771;DHT22;11552;50.786;4.332;2022-08-03T08:12:22;37.40;74.60
22771;DHT22;11552;50.786;4.332;2022-08-03T08:14:48;37.30;71.80
22771;DHT22;11552;50.786;4.332;2022-08-03T08:17:13;36.70;71.20
22771;DHT22;11552;50.786;4.332;2022-08-03T08:19:39;37.40;68.10
22771;DHT22;11552;50.786;4.332;2022-08-03T08:22:05;36.90;67.10
22771;DHT22;11552;50.786;4.332;2022-08-03T08:24:33;37.10;65.70
22771;DHT22;11552;50.786;4.332;2022-08-03T08:26:59;37.60;64.90
22771;DHT22;11552;50.786;4.332;2022-08-03T08:29:26;38.40;62.80
22771;DHT22;11552;50.786;4.332;2022-08-03T08:31:52;40.20;58.00
22771;DHT22;11552;50.786;4.332;2022-08-03T08:34:17;39.80;57.10
22771;DHT22;11552;50.786;4.332;2022-08-03T08:36:43;40.60;55.10
22771;DHT22;11552;50.786;4.332;2022-08-03T08:39:09;40.70;54.20
22771;DHT22;11552;50.786;4.332;2022-08-03T08:41:34;41.40;52.80
22771;DHT22;11552;50.786;4.332;2022-08-03T08:44:01;41.10;52.30
22771;DHT22;11552;50.786;4.332;2022-08-03T08:46:30;40.00;53.00
22771;DHT22;11552;50.786;4.332;2022-08-03T08:48:57;41.90;51.00
22771;DHT22;11552;50.786;4.332;2022-08-03T08:51:28;41.80;49.30
22771;DHT22;11552;50.786;4.332;2022-08-03T08:53:55;40.90;49.30
22771;DHT22;11552;50.786;4.332;2022-08-03T08:56:24;40.40;51.20
22771;DHT22;11552;50.786;4.332;2022-08-03T08:58:57;40.70;49.50
22771;DHT22;11552;50.786;4.332;2022-08-03T09:01:23;42.00;48.30
22771;DHT22;11552;50.786;4.332;2022-08-03T09:03:49;41.90;47.60
22771;DHT22;11552;50.786;4.332;2022-08-03T09:06:15;42.20;47.40
22771;DHT22;11552;50.786;4.332;2022-08-03T09:08:41;43.80;45.20
22771;DHT22;11552;50.786;4.332;2022-08-03T09:11:07;45.00;43.80
22771;DHT22;11552;50.786;4.332;2022-08-03T09:13:33;45.60;42.00
22771;DHT22;11552;50.786;4.332;2022-08-03T09:16:13;44.40;41.90
22771;DHT22;11552;50.786;4.332;2022-08-03T09:18:40;43.40;42.90
22771;DHT22;11552;50.786;4.332;2022-08-03T09:23:50;42.50;44.10
22771;DHT22;11552;50.786;4.332;2022-08-03T09:26:28;42.40;43.90
22771;DHT22;11552;50.786;4.332;2022-08-03T09:29:12;44.40;42.20
22771;DHT22;11552;50.786;4.332;2022-08-03T09:31:39;43.80;42.00
22771;DHT22;11552;50.786;4.332;2022-08-03T09:34:06;43.90;41.60
22771;DHT22;11552;50.786;4.332;2022-08-03T09:36:47;43.60;41.40
22771;DHT22;11552;50.786;4.332;2022-08-03T09:39:17;43.90;41.30
22771;DHT22;11552;50.786;4.332;2022-08-03T09:42:02;42.90;42.10
22771;DHT22;11552;50.786;4.332;2022-08-03T09:44:39;44.20;41.10
22771;DHT22;11552;50.786;4.332;2022-08-03T09:47:07;46.70;38.00
22771;DHT22;11552;50.786;4.332;2022-08-03T09:49:32;46.90;37.10
22771;DHT22;11552;50.786;4.332;2022-08-03T09:52:14;47.10;37.10
22771;DHT22;11552;50.786;4.332;2022-08-03T09:54:41;45.80;37.90
22771;DHT22;11552;50.786;4.332;2022-08-03T09:57:07;45.40;37.30
22771;DHT22;11552;50.786;4.332;2022-08-03T09:59:35;44.70;38.30
22771;DHT22;11552;50.786;4.332;2022-08-03T10:02:01;44.40;39.10
22771;DHT22;11552;50.786;4.332;2022-08-03T10:04:27;44.60;39.10
22771;DHT22;11552;50.786;4.332;2022-08-03T10:07:06;45.10;38.80
22771;DHT22;11552;50.786;4.332;2022-08-03T10:09:32;45.10;38.80
22771;DHT22;11552;50.786;4.332;2022-08-03T10:12:09;44.40;38.40
22771;DHT22;11552;50.786;4.332;2022-08-03T10:14:39;44.60;39.00
22771;DHT22;11552;50.786;4.332;2022-08-03T10:17:07;45.50;37.80
22771;DHT22;11552;50.786;4.332;2022-08-03T10:19:33;45.50;37.80
22771;DHT22;11552;50.786;4.332;2022-08-03T10:22:14;45.90;37.60
22771;DHT22;11552;50.786;4.332;2022-08-03T10:27:33;44.80;38.60
22771;DHT22;11552;50.786;4.332;2022-08-03T10:30:01;44.90;38.60
22771;DHT22;11552;50.786;4.332;2022-08-03T10:32:43;44.30;39.40
22771;DHT22;11552;50.786;4.332;2022-08-03T10:35:15;44.20;39.40
22771;DHT22;11552;50.786;4.332;2022-08-03T10:37:49;43.20;40.50
22771;DHT22;11552;50.786;4.332;2022-08-03T10:40:17;41.50;42.40
22771;DHT22;11552;50.786;4.332;2022-08-03T10:42:45;39.40;45.20
22771;DHT22;11552;50.786;4.332;2022-08-03T10:45:23;37.70;47.80
22771;DHT22;11552;50.786;4.332;2022-08-03T10:47:51;35.90;50.50
22771;DHT22;11552;50.786;4.332;2022-08-03T10:50:17;34.90;52.90
22771;DHT22;11552;50.786;4.332;2022-08-03T10:53:00;34.10;54.50
22771;DHT22;11552;50.786;4.332;2022-08-03T10:55:32;33.60;56.30
22771;DHT22;11552;50.786;4.332;2022-08-03T11:01:10;32.90;57.80
22771;DHT22;11552;50.786;4.332;2022-08-03T11:08:45;32.40;60.00
22771;DHT22;11552;50.786;4.332;2022-08-03T11:14:04;32.10;60.70
22771;DHT22;11552;50.786;4.332;2022-08-03T11:16:35;32.10;60.60
22771;DHT22;11552;50.786;4.332;2022-08-03T11:19:11;32.00;61.10
22771;DHT22;11552;50.786;4.332;2022-08-03T11:35:07;32.30;61.00
22771;DHT22;11552;50.786;4.332;2022-08-03T11:37:33;32.30;60.40
22771;DHT22;11552;50.786;4.332;2022-08-03T11:39:58;32.30;60.20
22771;DHT22;11552;50.786;4.332;2022-08-03T11:44:55;32.50;59.00
22771;DHT22;11552;50.786;4.332;2022-08-03T11:47:23;32.30;59.40
22771;DHT22;11552;50.786;4.332;2022-08-03T11:49:54;32.30;59.90
22771;DHT22;11552;50.786;4.332;2022-08-03T11:52:22;32.00;60.80
22771;DHT22;11552;50.786;4.332;2022-08-03T11:54:51;32.10;61.40
22771;DHT22;11552;50.786;4.332;2022-08-03T11:57:33;32.20;60.50
22771;DHT22;11552;50.786;4.332;2022-08-03T11:59:59;32.20;60.10
22771;DHT22;11552;50.786;4.332;2022-08-03T12:02:25;32.10;60.50
22771;DHT22;11552;50.786;4.332;2022-08-03T12:04:57;32.40;60.20
22771;DHT22;11552;50.786;4.332;2022-08-03T12:07:26;32.60;59.20
22771;DHT22;11552;50.786;4.332;2022-08-03T12:10:09;32.60;59.20
22771;DHT22;11552;50.786;4.332;2022-08-03T12:12:36;32.50;59.80
22771;DHT22;11552;50.786;4.332;2022-08-03T12:15:03;32.60;59.30
22771;DHT22;11552;50.786;4.332;2022-08-03T12:17:37;32.60;59.00
22771;DHT22;11552;50.786;4.332;2022-08-03T12:20:05;32.60;59.30
22771;DHT22;11552;50.786;4.332;2022-08-03T12:22:39;32.80;58.30
22771;DHT22;11552;50.786;4.332;2022-08-03T12:25:06;32.90;57.90
22771;DHT22;11552;50.786;4.332;2022-08-03T12:27:32;33.00;57.90
22771;DHT22;11552;50.786;4.332;2022-08-03T12:29:59;33.10;57.60
22771;DHT22;11552;50.786;4.332;2022-08-03T12:32:28;33.00;58.70
22771;DHT22;11552;50.786;4.332;2022-08-03T12:34:56;33.00;58.00
22771;DHT22;11552;50.786;4.332;2022-08-03T12:37:25;33.20;58.30
22771;DHT22;11552;50.786;4.332;2022-08-03T12:39:59;33.40;58.00
22771;DHT22;11552;50.786;4.332;2022-08-03T12:42:35;33.30;57.70
22771;DHT22;11552;50.786;4.332;2022-08-03T12:45:21;33.30;57.60
22771;DHT22;11552;50.786;4.332;2022-08-03T12:50:30;33.80;56.30
22771;DHT22;11552;50.786;4.332;2022-08-03T12:52:56;33.90;56.40
22771;DHT22;11552;50.786;4.332;2022-08-03T12:55:23;34.00;56.00
22771;DHT22;11552;50.786;4.332;2022-08-03T12:57:49;33.90;56.00
22771;DHT22;11552;50.786;4.332;2022-08-03T13:00:18;33.70;57.30
22771;DHT22;11552;50.786;4.332;2022-08-03T13:02:44;33.80;56.90
22771;DHT22;11552;50.786;4.332;2022-08-03T13:05:14;34.00;56.50
22771;DHT22;11552;50.786;4.332;2022-08-03T13:07:41;34.10;56.30
22771;DHT22;11552;50.786;4.332;2022-08-03T13:10:07;34.00;56.50
22771;DHT22;11552;50.786;4.332;2022-08-03T13:12:48;33.90;56.70
22771;DHT22;11552;50.786;4.332;2022-08-03T13:15:14;33.40;56.90
22771;DHT22;11552;50.786;4.332;2022-08-03T13:17:39;33.40;57.30
22771;DHT22;11552;50.786;4.332;2022-08-03T13:20:06;33.70;57.40
22771;DHT22;11552;50.786;4.332;2022-08-03T13:22:32;33.90;56.70
22771;DHT22;11552;50.786;4.332;2022-08-03T13:24:58;34.00;56.20
22771;DHT22;11552;50.786;4.332;2022-08-03T13:27:26;33.90;55.80
22771;DHT22;11552;50.786;4.332;2022-08-03T13:29:52;34.00;56.00
22771;DHT22;11552;50.786;4.332;2022-08-03T13:32:18;33.90;56.10
22771;DHT22;11552;50.786;4.332;2022-08-03T13:34:43;33.80;56.40
22771;DHT22;11552;50.786;4.332;2022-08-03T13:37:10;33.60;55.90
22771;DHT22;11552;50.786;4.332;2022-08-03T13:39:37;33.50;55.60
22771;DHT22;11552;50.786;4.332;2022-08-03T13:42:03;33.50;56.00
22771;DHT22;11552;50.786;4.332;2022-08-03T13:44:32;33.60;56.00
22771;DHT22;11552;50.786;4.332;2022-08-03T13:46:58;33.90;56.40
22771;DHT22;11552;50.786;4.332;2022-08-03T13:49:25;34.00;55.40
22771;DHT22;11552;50.786;4.332;2022-08-03T13:51:51;34.20;55.30
22771;DHT22;11552;50.786;4.332;2022-08-03T13:54:17;34.40;54.90
22771;DHT22;11552;50.786;4.332;2022-08-03T13:56:43;34.20;55.30
22771;DHT22;11552;50.786;4.332;2022-08-03T13:59:20;34.30;55.60
22771;DHT22;11552;50.786;4.332;2022-08-03T14:01:47;34.20;55.70
22771;DHT22;11552;50.786;4.332;2022-08-03T14:04:13;34.30;56.10
22771;DHT22;11552;50.786;4.332;2022-08-03T14:06:38;34.50;55.90
22771;DHT22;11552;50.786;4.332;2022-08-03T14:09:04;34.70;55.20
22771;DHT22;11552;50.786;4.332;2022-08-03T14:11:30;34.50;54.90
22771;DHT22;11552;50.786;4.332;2022-08-03T14:13:56;34.70;54.70
22771;DHT22;11552;50.786;4.332;2022-08-03T14:16:21;34.40;54.80
22771;DHT22;11552;50.786;4.332;2022-08-03T14:18:47;34.10;55.70
22771;DHT22;11552;50.786;4.332;2022-08-03T14:21:13;34.20;55.90
22771;DHT22;11552;50.786;4.332;2022-08-03T14:23:38;34.20;55.90
22771;DHT22;11552;50.786;4.332;2022-08-03T14:26:05;34.30;55.10
22771;DHT22;11552;50.786;4.332;2022-08-03T14:28:31;34.40;55.00
22771;DHT22;11552;50.786;4.332;2022-08-03T14:30:57;34.10;55.00
22771;DHT22;11552;50.786;4.332;2022-08-03T14:33:23;33.80;55.90
22771;DHT22;11552;50.786;4.332;2022-08-03T14:35:49;33.70;55.60
22771;DHT22;11552;50.786;4.332;2022-08-03T14:38:16;33.90;55.50
22771;DHT22;11552;50.786;4.332;2022-08-03T14:40:42;34.10;55.00
22771;DHT22;11552;50.786;4.332;2022-08-03T14:43:07;34.00;54.70
22771;DHT22;11552;50.786;4.332;2022-08-03T14:45:33;34.20;54.60
22771;DHT22;11552;50.786;4.332;2022-08-03T14:47:59;34.50;54.70
22771;DHT22;11552;50.786;4.332;2022-08-03T14:50:25;34.70;54.50
22771;DHT22;11552;50.786;4.332;2022-08-03T14:52:53;34.90;54.40
22771;DHT22;11552;50.786;4.332;2022-08-03T14:55:19;35.00;54.30
22771;DHT22;11552;50.786;4.332;2022-08-03T14:57:44;35.10;53.70
22771;DHT22;11552;50.786;4.332;2022-08-03T15:00:10;35.10;53.70
22771;DHT22;11552;50.786;4.332;2022-08-03T15:02:36;35.10;53.20
22771;DHT22;11552;50.786;4.332;2022-08-03T15:05:02;35.00;53.70
22771;DHT22;11552;50.786;4.332;2022-08-03T15:07:27;35.00;54.00
22771;DHT22;11552;50.786;4.332;2022-08-03T15:09:53;34.70;54.00
22771;DHT22;11552;50.786;4.332;2022-08-03T15:12:19;34.40;54.30
22771;DHT22;11552;50.786;4.332;2022-08-03T15:14:44;34.30;55.50
22771;DHT22;11552;50.786;4.332;2022-08-03T15:17:10;34.20;54.80
22771;DHT22;11552;50.786;4.332;2022-08-03T15:19:36;34.00;55.40
22771;DHT22;11552;50.786;4.332;2022-08-03T15:22:02;34.20;54.80
22771;DHT22;11552;50.786;4.332;2022-08-03T15:24:27;34.10;55.50
22771;DHT22;11552;50.786;4.332;2022-08-03T15:26:53;34.10;55.40
22771;DHT22;11552;50.786;4.332;2022-08-03T15:29:19;34.20;55.10
22771;DHT22;11552;50.786;4.332;2022-08-03T15:31:45;34.50;55.00
22771;DHT22;11552;50.786;4.332;2022-08-03T15:34:10;34.70;54.90
22771;DHT22;11552;50.786;4.332;2022-08-03T15:36:36;34.90;54.30
22771;DHT22;11552;50.786;4.332;2022-08-03T15:39:03;35.20;53.40
22771;DHT22;11552;50.786;4.332;2022-08-03T15:41:30;35.00;53.90
22771;DHT22;11552;50.786;4.332;2022-08-03T15:43:56;35.20;54.80
22771;DHT22;11552;50.786;4.332;2022-08-03T15:46:22;35.30;53.60
22771;DHT22;11552;50.786;4.332;2022-08-03T15:48:47;35.30;53.50
22771;DHT22;11552;50.786;4.332;2022-08-03T15:51:13;35.30;54.20
22771;DHT22;11552;50.786;4.332;2022-08-03T15:53:39;35.40;53.60
22771;DHT22;11552;50.786;4.332;2022-08-03T15:56:05;35.30;53.10
22771;DHT22;11552;50.786;4.332;2022-08-03T15:58:35;35.10;53.90
22771;DHT22;11552;50.786;4.332;2022-08-03T16:01:01;35.10;54.20
22771;DHT22;11552;50.786;4.332;2022-08-03T16:03:27;35.00;54.20
22771;DHT22;11552;50.786;4.332;2022-08-03T16:05:59;35.00;54.80
22771;DHT22;11552;50.786;4.332;2022-08-03T16:08:25;35.00;54.20
22771;DHT22;11552;50.786;4.332;2022-08-03T16:10:51;34.80;54.60
22771;DHT22;11552;50.786;4.332;2022-08-03T16:13:16;34.60;55.50
22771;DHT22;11552;50.786;4.332;2022-08-03T16:15:42;34.70;54.80
22771;DHT22;11552;50.786;4.332;2022-08-03T16:18:08;34.60;54.30
22771;DHT22;11552;50.786;4.332;2022-08-03T16:20:33;34.80;54.20
22771;DHT22;11552;50.786;4.332;2022-08-03T16:23:00;34.90;54.40
22771;DHT22;11552;50.786;4.332;2022-08-03T16:25:26;34.80;54.20